PAAQ METAR and TAF weather

Enter ICAO airport designator
Station Type Date Time Source
PAAQ METAR 2021/10/22 18:53 UTC NOAA

PAAQ 221853Z 00000KT 10SM OVC100 00/M02 A2891 RMK AO2 SLP792 T00001022 PNO $


Station Type Date Time Source
PAAQ Decoded METAR 2021/10/22 18:53 UTC NOAA

PALMER MUNICIPAL AIRPORT, AK, United States (PAAQ) 61-36N 149-06W
Oct 22, 2021 - 02:53 PM EDT / 2021.10.22 1853 UTC
Wind: Calm:0
Visibility: 10 mile(s):0
Sky conditions: overcast
Temperature: 32.0 F (0.0 C)
Dew Point: 28.0 F (-2.2 C)
Relative Humidity: 85%
Pressure (altimeter): 28.91 in. Hg (979 hPa)
ob: PAAQ 221853Z 00000KT 10SM OVC100 00/M02 A2891 RMK AO2 SLP792 T00001022 PNO
cycle: 19

Station Type Date Time Source
PAAQ TAF 2021/10/22 18:42 UTC NOAA

TAF PAAQ 221741Z 2218/2318 VRB04KT P6SM OVC100

Example: see airport list